Nearby METAR Reports

 

KFIN - Palm Coast, Florida, USA
Distance from station: ENE 9mi, 15km
Updated: Tue, 28-Jan-2020 11:50am EST
Clear
Clear
 Wind from N
Wind: N 6 mph , 9 km/h
Temperature: 61°F , 16°C
Dew Point: 43°F , 6°C
Humidity: 52%
Barometer: 30.03 inHg , 1016.9 hPa
Clouds: Clear
Visibility: 10 miles , 16 km
2020/01/28 16:50 KFIN 281650Z 36005KT 10SM CLR 16/06 A3003
KOMN - Ormond Beach Vor, Florida, USA
Distance from station: ESE 17mi, 27km
Updated: Tue, 28-Jan-2020 11:50am EST
Clear
Clear
 Wind from NNE
Wind: NNE 13 mph , 20 km/h, Gust: 18 mph , 30 km/h
Temperature: 59°F , 15°C
Dew Point: 54°F , 12°C
Humidity: 82%
Barometer: 30.03 inHg , 1016.9 hPa
Clouds: Clear
Visibility: 10 miles , 16 km
2020/01/28 16:50 KOMN 281650Z 03011G16KT 10SM CLR 15/12 A3003
 
KDAB - Daytona Beach, Florida, USA
Distance from station: SE 24mi, 39km
Updated: Tue, 28-Jan-2020 11:53am EST
Few Clouds
Few Clouds
 Wind from NNE
Wind: NNE 15 mph , 24 km/h
Temperature: 61°F , 16°C
Dew Point: 48°F , 9°C
Humidity: 63%
Barometer: 30.02 inHg , 1016.6 hPa
Clouds: Few Clouds
Visibility: 10 miles , 16 km
Cloud details: Few Clouds 3400 ft
2020/01/28 16:53 KDAB 281653Z 02013KT 10SM FEW034 16/09 A3002 RMK SLP164 T01610089
KDED - Deland, Florida, USA
Distance from station: S 26mi, 41km
Updated: Tue, 28-Jan-2020 11:35am EST
Clear
Clear
 Wind from N
Wind: N 7 mph , 11 km/h
Temperature: 61°F , 16°C
Dew Point: 43°F , 6°C
Humidity: 52%
Barometer: 30.01 inHg , 1016.3 hPa
Clouds: Clear
Visibility: 10 miles , 16 km
2020/01/28 16:35 KDED 281635Z AUTO 35006KT 10SM CLR 16/06 A3001 RMK AO2
 
KEVB - New Smyrna Beach, Florida, USA
Distance from station: SE 36mi, 58km
Updated: Tue, 28-Jan-2020 11:47am EST
Clear
Clear
 Wind from NNE
Wind: NNE 14 mph , 22 km/h, Gust: 21 mph , 33 km/h
Temperature: 61°F , 16°C
Dew Point: 48°F , 9°C
Humidity: 63%
Barometer: 30.02 inHg , 1016.6 hPa
Clouds: Clear
Visibility: 10 miles , 16 km
2020/01/28 16:47 KEVB 281647Z 02012G18KT 10SM CLR 16/09 A3002
KSGJ - St Augustine, Florida, USA
Distance from station: N 37mi, 60km
Updated: Tue, 28-Jan-2020 10:56am EST
Clear
Clear
 Wind from NNE
Wind: NNE 13 mph , 20 km/h
Temperature: 55°F , 13°C
Dew Point: 46°F , 8°C
Humidity: 72%
Barometer: 30.05 inHg , 1017.6 hPa
Clouds: Clear
Visibility: 10 miles , 16 km
2020/01/28 15:56 KSGJ 281556Z 02011KT 10SM CLR 13/08 A3005 RMK AO2 SLP176 T01330083 $
 
KSFB - Sanford/Orlando, Florida, USA
Distance from station: S 47mi, 75km
Updated: Tue, 28-Jan-2020 10:53am EST
Clear
Clear
 Wind from N
Wind: N 12 mph , 19 km/h
Temperature: 63°F , 17°C
Dew Point: 45°F , 7°C
Humidity: 52%
Barometer: 30.02 inHg , 1016.6 hPa
Clouds: Clear
Visibility: 10 miles , 16 km
2020/01/28 15:53 KSFB 281553Z 36010KT 10SM CLR 17/07 A3002 RMK AO2 SLP165 T01670067
KVVG - The Villages, Florida, USA
Distance from station: SW 50mi, 80km
Updated: Wed, 14-Feb-2018 2:10pm EST
NOT Current

 Wind from calm
Wind: Calm
Temperature: 73°F , 23°C
Dew Point: 66°F , 19°C
Humidity: 78%
Barometer: 30.29 inHg , 1025.7 hPa
Visibility: 10 miles , 16 km
2018/02/14 19:10 KVVG 141910Z AUTO 00000KT 10SM 23/19 A3029 RMK A01